sensor_id;sensor_type;location;lat;lon;timestamp;pressure;altitude;pressure_sealevel;temperature;humidity
46942;BME280;32676;52.630;4.896;2022-07-15T00:01:50;99622.06;;;15.36;69.83
46942;BME280;32676;52.630;4.896;2022-07-15T00:04:16;99629.16;;;15.35;69.83
46942;BME280;32676;52.630;4.896;2022-07-15T00:06:43;99629.16;;;15.35;69.78
46942;BME280;32676;52.630;4.896;2022-07-15T00:09:09;99653.72;;;15.38;69.49
46942;BME280;32676;52.630;4.896;2022-07-15T00:11:36;99654.34;;;15.41;69.12
46942;BME280;32676;52.630;4.896;2022-07-15T00:14:04;99655.19;;;15.42;69.02
46942;BME280;32676;52.630;4.896;2022-07-15T00:16:30;99685.78;;;15.46;69.21
46942;BME280;32676;52.630;4.896;2022-07-15T00:18:57;99683.22;;;15.44;68.76
46942;BME280;32676;52.630;4.896;2022-07-15T00:21:23;99671.06;;;15.42;68.78
46942;BME280;32676;52.630;4.896;2022-07-15T00:23:50;99672.97;;;15.40;69.11
46942;BME280;32676;52.630;4.896;2022-07-15T00:26:16;99680.72;;;15.43;69.00
46942;BME280;32676;52.630;4.896;2022-07-15T00:28:43;99681.66;;;15.42;68.86
46942;BME280;32676;52.630;4.896;2022-07-15T00:31:10;99684.31;;;15.42;68.97
46942;BME280;32676;52.630;4.896;2022-07-15T00:33:37;99695.63;;;15.44;68.91
46942;BME280;32676;52.630;4.896;2022-07-15T00:36:04;99699.25;;;15.43;69.04
46942;BME280;32676;52.630;4.896;2022-07-15T00:38:30;99692.25;;;15.42;68.66
46942;BME280;32676;52.630;4.896;2022-07-15T00:40:56;99695.84;;;15.41;69.07
46942;BME280;32676;52.630;4.896;2022-07-15T00:43:23;99688.03;;;15.39;68.98
46942;BME280;32676;52.630;4.896;2022-07-15T00:45:49;99683.78;;;15.36;69.03
46942;BME280;32676;52.630;4.896;2022-07-15T00:48:19;99679.56;;;15.34;68.97
46942;BME280;32676;52.630;4.896;2022-07-15T00:50:46;99661.59;;;15.26;69.35
46942;BME280;32676;52.630;4.896;2022-07-15T00:53:15;99671.94;;;15.29;69.48
46942;BME280;32676;52.630;4.896;2022-07-15T00:55:44;99677.00;;;15.32;69.36
46942;BME280;32676;52.630;4.896;2022-07-15T00:58:15;99690.97;;;15.34;69.07
46942;BME280;32676;52.630;4.896;2022-07-15T01:00:42;99697.97;;;15.35;68.93
46942;BME280;32676;52.630;4.896;2022-07-15T01:03:10;99716.16;;;15.40;68.88
46942;BME280;32676;52.630;4.896;2022-07-15T01:05:38;99721.47;;;15.40;69.25
46942;BME280;32676;52.630;4.896;2022-07-15T01:08:05;99745.00;;;15.45;69.05
46942;BME280;32676;52.630;4.896;2022-07-15T01:10:34;99757.97;;;15.48;68.78
46942;BME280;32676;52.630;4.896;2022-07-15T01:13:00;99783.31;;;15.52;68.74
46942;BME280;32676;52.630;4.896;2022-07-15T01:15:28;99800.69;;;15.56;68.58
46942;BME280;32676;52.630;4.896;2022-07-15T01:17:56;99805.00;;;15.57;68.88
46942;BME280;32676;52.630;4.896;2022-07-15T01:20:23;99805.97;;;15.56;68.64
46942;BME280;32676;52.630;4.896;2022-07-15T01:22:50;99819.94;;;15.58;68.62
46942;BME280;32676;52.630;4.896;2022-07-15T01:25:17;99828.63;;;15.60;68.69
46942;BME280;32676;52.630;4.896;2022-07-15T01:27:43;99831.28;;;15.60;68.59
46942;BME280;32676;52.630;4.896;2022-07-15T01:30:10;99836.03;;;15.55;68.36
46942;BME280;32676;52.630;4.896;2022-07-15T01:32:37;99842.59;;;15.62;68.50
46942;BME280;32676;52.630;4.896;2022-07-15T01:35:04;99833.09;;;15.60;68.13
46942;BME280;32676;52.630;4.896;2022-07-15T01:37:31;99829.06;;;15.54;68.53
46942;BME280;32676;52.630;4.896;2022-07-15T01:39:59;99835.84;;;15.58;68.56
46942;BME280;32676;52.630;4.896;2022-07-15T01:42:25;99841.97;;;15.59;68.83
46942;BME280;32676;52.630;4.896;2022-07-15T01:44:51;99836.38;;;15.50;68.32
46942;BME280;32676;52.630;4.896;2022-07-15T01:47:18;99852.56;;;15.59;68.31
46942;BME280;32676;52.630;4.896;2022-07-15T01:49:44;99868.25;;;15.62;67.62
46942;BME280;32676;52.630;4.896;2022-07-15T01:52:10;99845.59;;;15.58;67.75
46942;BME280;32676;52.630;4.896;2022-07-15T01:54:37;99841.34;;;15.55;67.39
46942;BME280;32676;52.630;4.896;2022-07-15T01:57:04;99825.69;;;15.52;67.22
46942;BME280;32676;52.630;4.896;2022-07-15T01:59:31;99808.72;;;15.42;67.19
46942;BME280;32676;52.630;4.896;2022-07-15T02:01:58;99807.56;;;15.46;67.38
46942;BME280;32676;52.630;4.896;2022-07-15T02:04:25;99776.97;;;15.29;67.37
46942;BME280;32676;52.630;4.896;2022-07-15T02:06:52;99780.97;;;15.34;67.73
46942;BME280;32676;52.630;4.896;2022-07-15T02:09:18;99790.41;;;15.39;67.84
46942;BME280;32676;52.630;4.896;2022-07-15T02:11:45;99777.41;;;15.35;67.86
46942;BME280;32676;52.630;4.896;2022-07-15T02:14:13;99772.09;;;15.35;67.63
46942;BME280;32676;52.630;4.896;2022-07-15T02:16:39;99772.31;;;15.32;67.55
46942;BME280;32676;52.630;4.896;2022-07-15T02:19:06;99771.56;;;15.30;68.05
46942;BME280;32676;52.630;4.896;2022-07-15T02:21:34;99751.56;;;15.26;67.77
46942;BME280;32676;52.630;4.896;2022-07-15T02:24:01;99749.88;;;15.25;68.04
46942;BME280;32676;52.630;4.896;2022-07-15T02:26:27;99734.19;;;15.22;68.43
46942;BME280;32676;52.630;4.896;2022-07-15T02:28:54;99720.41;;;15.17;68.23
46942;BME280;32676;52.630;4.896;2022-07-15T02:31:21;99723.06;;;15.17;68.60
46942;BME280;32676;52.630;4.896;2022-07-15T02:33:49;99711.00;;;15.13;68.72
46942;BME280;32676;52.630;4.896;2022-07-15T02:36:16;99712.81;;;15.12;69.17
46942;BME280;32676;52.630;4.896;2022-07-15T02:38:43;99716.41;;;15.11;69.01
46942;BME280;32676;52.630;4.896;2022-07-15T02:41:10;99702.34;;;15.11;69.28
46942;BME280;32676;52.630;4.896;2022-07-15T02:43:38;99712.19;;;15.09;69.78
46942;BME280;32676;52.630;4.896;2022-07-15T02:46:06;99691.22;;;15.06;69.67
46942;BME280;32676;52.630;4.896;2022-07-15T02:48:35;99690.47;;;15.04;69.70
46942;BME280;32676;52.630;4.896;2022-07-15T02:51:02;99669.66;;;14.99;70.04
46942;BME280;32676;52.630;4.896;2022-07-15T02:53:28;99637.91;;;14.86;70.62
46942;BME280;32676;52.630;4.896;2022-07-15T02:55:55;99643.72;;;14.91;70.72
46942;BME280;32676;52.630;4.896;2022-07-15T02:58:23;99607.66;;;14.77;70.88
46942;BME280;32676;52.630;4.896;2022-07-15T03:00:49;99590.19;;;14.75;71.03
46942;BME280;32676;52.630;4.896;2022-07-15T03:03:16;99587.53;;;14.75;71.44
46942;BME280;32676;52.630;4.896;2022-07-15T03:05:44;99573.59;;;14.73;71.47
46942;BME280;32676;52.630;4.896;2022-07-15T03:08:10;99566.84;;;14.69;71.25
46942;BME280;32676;52.630;4.896;2022-07-15T03:10:37;99561.75;;;14.66;71.63
46942;BME280;32676;52.630;4.896;2022-07-15T03:13:03;99542.72;;;14.61;71.79
46942;BME280;32676;52.630;4.896;2022-07-15T03:15:30;99516.69;;;14.54;72.26
46942;BME280;32676;52.630;4.896;2022-07-15T03:17:56;99498.63;;;14.48;72.46
46942;BME280;32676;52.630;4.896;2022-07-15T03:20:23;99493.34;;;14.48;72.57
46942;BME280;32676;52.630;4.896;2022-07-15T03:22:51;99483.69;;;14.47;72.45
46942;BME280;32676;52.630;4.896;2022-07-15T03:25:17;99493.53;;;14.45;72.74
46942;BME280;32676;52.630;4.896;2022-07-15T03:27:44;99493.53;;;14.45;72.94
46942;BME280;32676;52.630;4.896;2022-07-15T03:30:10;99496.19;;;14.45;72.77
46942;BME280;32676;52.630;4.896;2022-07-15T03:32:37;99482.22;;;14.43;72.65
46942;BME280;32676;52.630;4.896;2022-07-15T03:35:04;99484.16;;;14.41;72.63
46942;BME280;32676;52.630;4.896;2022-07-15T03:37:31;99469.44;;;14.37;72.71
46942;BME280;32676;52.630;4.896;2022-07-15T03:39:59;99467.03;;;14.34;72.92
46942;BME280;32676;52.630;4.896;2022-07-15T03:42:25;99456.66;;;14.31;72.90
46942;BME280;32676;52.630;4.896;2022-07-15T03:44:52;99452.34;;;14.30;73.33
46942;BME280;32676;52.630;4.896;2022-07-15T03:47:18;99443.66;;;14.28;73.41
46942;BME280;32676;52.630;4.896;2022-07-15T03:49:45;99435.09;;;14.24;73.45
46942;BME280;32676;52.630;4.896;2022-07-15T03:52:11;99420.31;;;14.21;73.58
46942;BME280;32676;52.630;4.896;2022-07-15T03:54:38;99417.03;;;14.18;73.37
46942;BME280;32676;52.630;4.896;2022-07-15T03:57:05;99406.56;;;14.16;73.37
46942;BME280;32676;52.630;4.896;2022-07-15T03:59:32;99403.19;;;14.14;73.75
46942;BME280;32676;52.630;4.896;2022-07-15T04:01:58;99386.72;;;14.11;73.77
46942;BME280;32676;52.630;4.896;2022-07-15T04:04:25;99372.47;;;14.00;73.90
46942;BME280;32676;52.630;4.896;2022-07-15T04:06:52;99380.81;;;14.07;73.80
46942;BME280;32676;52.630;4.896;2022-07-15T04:09:18;99383.44;;;14.07;73.85
46942;BME280;32676;52.630;4.896;2022-07-15T04:11:45;99386.31;;;14.04;74.00
46942;BME280;32676;52.630;4.896;2022-07-15T04:14:13;99388.00;;;14.05;74.18
46942;BME280;32676;52.630;4.896;2022-07-15T04:16:40;99378.09;;;13.96;74.11
46942;BME280;32676;52.630;4.896;2022-07-15T04:19:07;99395.00;;;14.06;74.41
46942;BME280;32676;52.630;4.896;2022-07-15T04:21:33;99407.97;;;14.09;74.21
46942;BME280;32676;52.630;4.896;2022-07-15T04:23:59;99420.13;;;14.12;74.42
46942;BME280;32676;52.630;4.896;2022-07-15T04:26:26;99443.56;;;14.16;74.54
46942;BME280;32676;52.630;4.896;2022-07-15T04:28:53;99445.47;;;14.14;74.34
46942;BME280;32676;52.630;4.896;2022-07-15T04:31:21;99466.16;;;14.20;74.28
46942;BME280;32676;52.630;4.896;2022-07-15T04:33:47;99473.16;;;14.21;74.29
46942;BME280;32676;52.630;4.896;2022-07-15T04:36:14;99480.16;;;14.23;74.62
46942;BME280;32676;52.630;4.896;2022-07-15T04:38:40;99519.25;;;14.30;74.23
46942;BME280;32676;52.630;4.896;2022-07-15T04:41:06;99566.81;;;14.43;74.06
46942;BME280;32676;52.630;4.896;2022-07-15T04:43:33;99638.13;;;14.57;74.04
46942;BME280;32676;52.630;4.896;2022-07-15T04:45:59;99688.25;;;14.72;73.54
46942;BME280;32676;52.630;4.896;2022-07-15T04:48:27;99751.75;;;14.85;73.45
46942;BME280;32676;52.630;4.896;2022-07-15T04:51:11;99807.31;;;14.97;72.84
46942;BME280;32676;52.630;4.896;2022-07-15T04:53:38;99870.75;;;15.12;72.46
46942;BME280;32676;52.630;4.896;2022-07-15T04:56:04;99940.22;;;15.28;71.77
46942;BME280;32676;52.630;4.896;2022-07-15T04:58:31;99993.22;;;15.41;71.30
46942;BME280;32676;52.630;4.896;2022-07-15T05:00:57;100056.78;;;15.54;71.21
46942;BME280;32676;52.630;4.896;2022-07-15T05:03:24;100117.66;;;15.68;70.41
46942;BME280;32676;52.630;4.896;2022-07-15T05:05:52;100168.16;;;15.80;69.81
46942;BME280;32676;52.630;4.896;2022-07-15T05:08:18;100218.09;;;15.86;69.45
46942;BME280;32676;52.630;4.896;2022-07-15T05:10:46;100298.88;;;16.07;69.17
46942;BME280;32676;52.630;4.896;2022-07-15T05:13:13;100355.34;;;16.22;68.57
46942;BME280;32676;52.630;4.896;2022-07-15T05:15:39;100393.59;;;16.33;68.19
46942;BME280;32676;52.630;4.896;2022-07-15T05:18:06;100447.78;;;16.43;67.92
46942;BME280;32676;52.630;4.896;2022-07-15T05:20:32;100490.47;;;16.53;67.34
46942;BME280;32676;52.630;4.896;2022-07-15T05:23:00;100552.41;;;16.66;67.29
46942;BME280;32676;52.630;4.896;2022-07-15T05:25:27;100602.06;;;16.78;66.80
46942;BME280;32676;52.630;4.896;2022-07-15T05:27:53;100652.72;;;16.89;66.52
46942;BME280;32676;52.630;4.896;2022-07-15T05:30:20;100700.72;;;17.01;65.98
46942;BME280;32676;52.630;4.896;2022-07-15T05:32:46;100750.38;;;17.13;65.82
46942;BME280;32676;52.630;4.896;2022-07-15T05:35:13;100796.78;;;17.22;65.47
46942;BME280;32676;52.630;4.896;2022-07-15T05:37:41;100834.25;;;17.32;64.44
46942;BME280;32676;52.630;4.896;2022-07-15T05:40:10;100853.97;;;17.27;64.09
46942;BME280;32676;52.630;4.896;2022-07-15T05:42:38;100920.81;;;17.50;64.00
46942;BME280;32676;52.630;4.896;2022-07-15T05:45:05;100953.09;;;17.58;63.87
46942;BME280;32676;52.630;4.896;2022-07-15T05:47:32;100995.06;;;17.68;63.39
46942;BME280;32676;52.630;4.896;2022-07-15T05:49:58;101038.75;;;17.78;63.58
46942;BME280;32676;52.630;4.896;2022-07-15T05:52:25;101087.78;;;17.88;63.46
46942;BME280;32676;52.630;4.896;2022-07-15T05:54:51;101138.56;;;17.99;63.36
46942;BME280;32676;52.630;4.896;2022-07-15T05:57:19;101168.19;;;18.08;63.15
46942;BME280;32676;52.630;4.896;2022-07-15T05:59:46;101203.19;;;18.16;62.88
46942;BME280;32676;52.630;4.896;2022-07-15T06:02:12;101248.81;;;18.24;62.37
46942;BME280;32676;52.630;4.896;2022-07-15T06:04:39;101298.66;;;18.36;61.87
46942;BME280;32676;52.630;4.896;2022-07-15T06:07:05;101304.75;;;18.38;61.85
46942;BME280;32676;52.630;4.896;2022-07-15T06:09:32;101344.22;;;18.46;61.94
46942;BME280;32676;52.630;4.896;2022-07-15T06:11:58;101383.72;;;18.54;61.45
46942;BME280;32676;52.630;4.896;2022-07-15T06:14:26;101410.00;;;18.60;61.69
46942;BME280;32676;52.630;4.896;2022-07-15T06:16:53;101420.47;;;18.63;61.08
46942;BME280;32676;52.630;4.896;2022-07-15T06:19:19;101450.16;;;18.71;61.01
46942;BME280;32676;52.630;4.896;2022-07-15T06:21:45;101491.47;;;18.78;61.05
46942;BME280;32676;52.630;4.896;2022-07-15T06:24:12;101537.91;;;18.90;60.47
46942;BME280;32676;52.630;4.896;2022-07-15T06:26:38;101555.44;;;18.94;59.91
46942;BME280;32676;52.630;4.896;2022-07-15T06:29:05;101593.13;;;19.03;59.40
46942;BME280;32676;52.630;4.896;2022-07-15T06:31:33;101622.03;;;19.10;59.29
46942;BME280;32676;52.630;4.896;2022-07-15T06:33:59;101645.75;;;19.15;59.54
46942;BME280;32676;52.630;4.896;2022-07-15T06:36:26;101676.50;;;19.21;59.23
46942;BME280;32676;52.630;4.896;2022-07-15T06:38:52;101683.72;;;19.18;58.71
46942;BME280;32676;52.630;4.896;2022-07-15T06:41:19;101671.19;;;19.21;58.13
46942;BME280;32676;52.630;4.896;2022-07-15T06:43:45;101665.00;;;19.20;57.71
46942;BME280;32676;52.630;4.896;2022-07-15T06:46:12;101716.78;;;19.32;58.46
46942;BME280;32676;52.630;4.896;2022-07-15T06:48:41;101750.91;;;19.41;57.05
46942;BME280;32676;52.630;4.896;2022-07-15T06:51:07;101775.59;;;19.45;55.45
46942;BME280;32676;52.630;4.896;2022-07-15T06:53:34;101755.38;;;19.41;54.37
46942;BME280;32676;52.630;4.896;2022-07-15T06:56:01;101685.28;;;19.23;53.61
46942;BME280;32676;52.630;4.896;2022-07-15T06:58:28;101648.31;;;19.16;54.02
46942;BME280;32676;52.630;4.896;2022-07-15T07:00:54;101657.09;;;19.18;54.30
46942;BME280;32676;52.630;4.896;2022-07-15T07:03:21;101662.41;;;19.18;54.20
46942;BME280;32676;52.630;4.896;2022-07-15T07:05:48;101715.03;;;19.31;54.24
46942;BME280;32676;52.630;4.896;2022-07-15T07:08:15;101748.25;;;19.41;53.92
46942;BME280;32676;52.630;4.896;2022-07-15T07:10:41;101804.50;;;19.52;53.85
46942;BME280;32676;52.630;4.896;2022-07-15T07:13:08;101854.50;;;19.65;53.44
46942;BME280;32676;52.630;4.896;2022-07-15T07:15:34;101855.44;;;19.64;52.65
46942;BME280;32676;52.630;4.896;2022-07-15T07:18:01;101927.44;;;19.81;53.00
46942;BME280;32676;52.630;4.896;2022-07-15T07:20:28;102034.56;;;20.07;52.88
46942;BME280;32676;52.630;4.896;2022-07-15T07:22:56;102126.84;;;20.28;52.82
46942;BME280;32676;52.630;4.896;2022-07-15T07:25:23;102112.81;;;20.25;52.07
46942;BME280;32676;52.630;4.896;2022-07-15T07:27:49;102082.81;;;20.20;52.01
46942;BME280;32676;52.630;4.896;2022-07-15T07:30:16;102122.44;;;20.27;51.78
46942;BME280;32676;52.630;4.896;2022-07-15T07:32:43;102213.81;;;20.50;52.26
46942;BME280;32676;52.630;4.896;2022-07-15T07:35:09;102313.44;;;20.69;52.07
46942;BME280;32676;52.630;4.896;2022-07-15T07:37:37;102396.94;;;20.92;51.06
46942;BME280;32676;52.630;4.896;2022-07-15T07:40:07;102426.94;;;20.97;50.49
46942;BME280;32676;52.630;4.896;2022-07-15T07:42:34;102452.66;;;21.00;49.54
46942;BME280;32676;52.630;4.896;2022-07-15T07:45:00;102532.63;;;21.22;48.83
46942;BME280;32676;52.630;4.896;2022-07-15T07:47:27;102556.31;;;21.29;48.37
46942;BME280;32676;52.630;4.896;2022-07-15T07:49:53;102643.59;;;21.50;48.64
46942;BME280;32676;52.630;4.896;2022-07-15T07:52:20;102714.13;;;21.66;47.25
46942;BME280;32676;52.630;4.896;2022-07-15T07:54:46;102710.53;;;21.67;46.76
46942;BME280;32676;52.630;4.896;2022-07-15T07:57:14;102728.16;;;21.71;46.48
46942;BME280;32676;52.630;4.896;2022-07-15T07:59:41;102714.84;;;21.70;45.43
46942;BME280;32676;52.630;4.896;2022-07-15T08:02:07;102689.28;;;21.64;45.67
46942;BME280;32676;52.630;4.896;2022-07-15T08:04:33;102644.25;;;21.55;46.55
46942;BME280;32676;52.630;4.896;2022-07-15T08:07:00;102617.72;;;21.50;47.49
46942;BME280;32676;52.630;4.896;2022-07-15T08:09:26;102668.00;;;21.61;47.45
46942;BME280;32676;52.630;4.896;2022-07-15T08:11:53;102740.31;;;21.78;46.84
46942;BME280;32676;52.630;4.896;2022-07-15T08:14:21;102740.22;;;21.80;44.34
46942;BME280;32676;52.630;4.896;2022-07-15T08:16:47;102757.00;;;21.83;44.60
46942;BME280;32676;52.630;4.896;2022-07-15T08:19:14;102769.28;;;21.88;46.13
46942;BME280;32676;52.630;4.896;2022-07-15T08:21:41;102788.66;;;21.93;46.25
46942;BME280;32676;52.630;4.896;2022-07-15T08:24:08;102785.22;;;21.91;46.49
46942;BME280;32676;52.630;4.896;2022-07-15T08:26:34;102794.03;;;21.93;46.35
46942;BME280;32676;52.630;4.896;2022-07-15T08:29:02;102801.91;;;21.96;46.58
46942;BME280;32676;52.630;4.896;2022-07-15T08:31:30;102840.66;;;22.06;45.94
46942;BME280;32676;52.630;4.896;2022-07-15T08:33:57;102835.31;;;22.06;45.74
46942;BME280;32676;52.630;4.896;2022-07-15T08:36:23;102820.47;;;21.99;46.25
46942;BME280;32676;52.630;4.896;2022-07-15T08:38:50;102845.88;;;22.09;46.37
46942;BME280;32676;52.630;4.896;2022-07-15T08:41:16;102838.78;;;22.08;46.88
46942;BME280;32676;52.630;4.896;2022-07-15T08:43:43;102811.53;;;22.00;47.07
46942;BME280;32676;52.630;4.896;2022-07-15T08:46:10;102808.69;;;22.03;46.79
46942;BME280;32676;52.630;4.896;2022-07-15T08:48:45;102808.69;;;22.03;46.54
46942;BME280;32676;52.630;4.896;2022-07-15T08:51:14;102816.56;;;22.06;47.07
46942;BME280;32676;52.630;4.896;2022-07-15T08:53:41;102791.22;;;21.96;47.63
46942;BME280;32676;52.630;4.896;2022-07-15T08:56:08;102831.53;;;22.10;48.33
46942;BME280;32676;52.630;4.896;2022-07-15T08:58:35;102858.03;;;22.16;48.20
46942;BME280;32676;52.630;4.896;2022-07-15T09:01:02;102835.16;;;22.09;46.92
46942;BME280;32676;52.630;4.896;2022-07-15T09:03:29;102840.19;;;22.15;45.97
46942;BME280;32676;52.630;4.896;2022-07-15T09:05:56;102822.56;;;22.11;45.38
46942;BME280;32676;52.630;4.896;2022-07-15T09:08:23;102819.09;;;22.09;45.77
46942;BME280;32676;52.630;4.896;2022-07-15T09:10:51;102812.16;;;22.05;45.20
46942;BME280;32676;52.630;4.896;2022-07-15T09:13:24;102828.72;;;22.13;45.31
46942;BME280;32676;52.630;4.896;2022-07-15T09:15:51;102847.16;;;22.19;45.10
46942;BME280;32676;52.630;4.896;2022-07-15T09:18:21;102841.00;;;22.17;45.60
46942;BME280;32676;52.630;4.896;2022-07-15T09:20:49;102834.84;;;22.15;46.52
46942;BME280;32676;52.630;4.896;2022-07-15T09:23:22;102862.91;;;22.26;46.83
46942;BME280;32676;52.630;4.896;2022-07-15T09:25:55;102884.25;;;22.29;46.47
46942;BME280;32676;52.630;4.896;2022-07-15T09:28:34;102887.72;;;22.31;46.51
46942;BME280;32676;52.630;4.896;2022-07-15T09:31:01;102892.09;;;22.32;45.35
46942;BME280;32676;52.630;4.896;2022-07-15T09:33:45;102879.66;;;22.31;45.30
46942;BME280;32676;52.630;4.896;2022-07-15T09:36:14;102921.13;;;22.41;44.40
46942;BME280;32676;52.630;4.896;2022-07-15T09:38:45;103023.66;;;22.64;43.94
46942;BME280;32676;52.630;4.896;2022-07-15T09:41:19;103090.78;;;22.79;43.76
46942;BME280;32676;52.630;4.896;2022-07-15T09:43:49;103054.56;;;22.71;42.97
46942;BME280;32676;52.630;4.896;2022-07-15T09:46:17;103016.41;;;22.66;44.28
46942;BME280;32676;52.630;4.896;2022-07-15T09:48:46;103051.72;;;22.74;43.64
46942;BME280;32676;52.630;4.896;2022-07-15T09:51:14;103088.84;;;22.83;42.71
46942;BME280;32676;52.630;4.896;2022-07-15T09:53:43;103067.66;;;22.77;42.96
46942;BME280;32676;52.630;4.896;2022-07-15T09:56:12;103104.63;;;22.89;43.70
46942;BME280;32676;52.630;4.896;2022-07-15T09:58:41;103057.72;;;22.79;43.06
46942;BME280;32676;52.630;4.896;2022-07-15T10:01:08;103104.63;;;22.89;44.36
46942;BME280;32676;52.630;4.896;2022-07-15T10:03:36;103117.78;;;22.94;44.47
46942;BME280;32676;52.630;4.896;2022-07-15T10:06:03;103138.09;;;22.99;44.04
46942;BME280;32676;52.630;4.896;2022-07-15T10:08:31;103146.94;;;23.02;44.46
46942;BME280;32676;52.630;4.896;2022-07-15T10:11:00;103192.91;;;23.13;44.90
46942;BME280;32676;52.630;4.896;2022-07-15T10:13:42;103191.94;;;23.14;45.24
46942;BME280;32676;52.630;4.896;2022-07-15T10:16:21;103192.91;;;23.13;45.11
46942;BME280;32676;52.630;4.896;2022-07-15T10:19:05;103114.88;;;22.98;45.29
46942;BME280;32676;52.630;4.896;2022-07-15T10:21:38;103088.38;;;22.92;45.25
46942;BME280;32676;52.630;4.896;2022-07-15T10:24:20;103100.69;;;22.96;45.40
46942;BME280;32676;52.630;4.896;2022-07-15T10:27:04;103140.66;;;23.01;45.91
46942;BME280;32676;52.630;4.896;2022-07-15T10:29:32;103208.69;;;23.19;46.16
46942;BME280;32676;52.630;4.896;2022-07-15T10:32:00;103226.22;;;23.26;45.17
46942;BME280;32676;52.630;4.896;2022-07-15T10:34:31;103214.78;;;23.23;44.81
46942;BME280;32676;52.630;4.896;2022-07-15T10:37:06;103210.31;;;23.23;44.44
46942;BME280;32676;52.630;4.896;2022-07-15T10:39:55;103263.34;;;23.35;44.40
46942;BME280;32676;52.630;4.896;2022-07-15T10:42:58;103254.44;;;23.35;43.30
46942;BME280;32676;52.630;4.896;2022-07-15T10:45:26;103263.34;;;23.35;43.85
46942;BME280;32676;52.630;4.896;2022-07-15T10:48:26;103280.03;;;23.42;43.28
46942;BME280;32676;52.630;4.896;2022-07-15T10:50:53;103330.53;;;23.53;43.95
46942;BME280;32676;52.630;4.896;2022-07-15T10:53:22;103376.50;;;23.64;43.77
46942;BME280;32676;52.630;4.896;2022-07-15T10:55:49;103411.78;;;23.75;43.01
46942;BME280;32676;52.630;4.896;2022-07-15T10:58:18;103423.25;;;23.79;43.25
46942;BME280;32676;52.630;4.896;2022-07-15T11:00:45;103386.03;;;23.71;42.75
46942;BME280;32676;52.630;4.896;2022-07-15T11:03:14;103379.72;;;23.72;43.03
46942;BME280;32676;52.630;4.896;2022-07-15T11:06:00;103406.56;;;23.72;43.84
46942;BME280;32676;52.630;4.896;2022-07-15T11:08:47;103472.63;;;23.95;43.04
46942;BME280;32676;52.630;4.896;2022-07-15T11:11:46;103562.19;;;24.15;43.50
46942;BME280;32676;52.630;4.896;2022-07-15T11:14:44;103619.78;;;24.28;43.39
46942;BME280;32676;52.630;4.896;2022-07-15T11:17:13;103614.38;;;24.28;43.12
46942;BME280;32676;52.630;4.896;2022-07-15T11:19:42;103605.47;;;24.28;43.49
46942;BME280;32676;52.630;4.896;2022-07-15T11:22:11;103559.41;;;24.17;43.09
46942;BME280;32676;52.630;4.896;2022-07-15T11:24:38;103532.69;;;24.13;42.58
46942;BME280;32676;52.630;4.896;2022-07-15T11:27:04;103478.59;;;24.02;42.65
46942;BME280;32676;52.630;4.896;2022-07-15T11:29:44;103444.91;;;23.95;44.34
46942;BME280;32676;52.630;4.896;2022-07-15T11:32:12;103430.91;;;23.88;44.00
46942;BME280;32676;52.630;4.896;2022-07-15T11:34:40;103490.00;;;24.07;44.00
46942;BME280;32676;52.630;4.896;2022-07-15T11:37:07;103508.66;;;24.10;43.72
46942;BME280;32676;52.630;4.896;2022-07-15T11:39:34;103546.78;;;24.19;44.39
46942;BME280;32676;52.630;4.896;2022-07-15T11:42:01;103505.81;;;24.13;43.84
46942;BME280;32676;52.630;4.896;2022-07-15T11:44:48;103473.09;;;24.05;44.50
46942;BME280;32676;52.630;4.896;2022-07-15T11:47:15;103467.78;;;24.04;44.86
46942;BME280;32676;52.630;4.896;2022-07-15T11:49:41;103450.28;;;23.95;44.38
46942;BME280;32676;52.630;4.896;2022-07-15T11:52:11;103472.91;;;24.08;44.41
46942;BME280;32676;52.630;4.896;2022-07-15T11:54:39;103415.28;;;23.97;44.15
46942;BME280;32676;52.630;4.896;2022-07-15T11:57:08;103382.47;;;23.90;44.41
46942;BME280;32676;52.630;4.896;2022-07-15T11:59:35;103404.63;;;23.95;44.81
46942;BME280;32676;52.630;4.896;2022-07-15T12:02:04;103368.25;;;23.88;44.25
46942;BME280;32676;52.630;4.896;2022-07-15T12:04:32;103388.56;;;23.93;44.50
46942;BME280;32676;52.630;4.896;2022-07-15T12:06:58;103441.00;;;24.02;45.44
46942;BME280;32676;52.630;4.896;2022-07-15T12:09:25;103533.03;;;24.25;44.59
46942;BME280;32676;52.630;4.896;2022-07-15T12:11:51;103547.13;;;24.30;44.29
46942;BME280;32676;52.630;4.896;2022-07-15T12:14:19;103546.13;;;24.32;45.02
46942;BME280;32676;52.630;4.896;2022-07-15T12:16:48;103564.72;;;24.37;44.29
46942;BME280;32676;52.630;4.896;2022-07-15T12:19:18;103515.06;;;24.27;44.66
46942;BME280;32676;52.630;4.896;2022-07-15T12:21:47;103483.16;;;24.19;44.69
46942;BME280;32676;52.630;4.896;2022-07-15T12:24:15;103454.75;;;24.13;44.85
46942;BME280;32676;52.630;4.896;2022-07-15T12:26:55;103407.72;;;24.05;44.92
46942;BME280;32676;52.630;4.896;2022-07-15T12:29:24;103418.31;;;24.08;45.98
46942;BME280;32676;52.630;4.896;2022-07-15T12:31:52;103421.09;;;24.06;45.29
46942;BME280;32676;52.630;4.896;2022-07-15T12:34:54;103409.47;;;24.06;45.64
46942;BME280;32676;52.630;4.896;2022-07-15T12:37:22;103389.03;;;24.03;45.24
46942;BME280;32676;52.630;4.896;2022-07-15T12:39:59;103373.03;;;24.00;45.69
46942;BME280;32676;52.630;4.896;2022-07-15T12:42:30;103354.63;;;23.92;46.08
46942;BME280;32676;52.630;4.896;2022-07-15T12:45:08;103372.19;;;24.00;46.43
46942;BME280;32676;52.630;4.896;2022-07-15T12:47:35;103381.88;;;24.02;46.76
46942;BME280;32676;52.630;4.896;2022-07-15T12:50:05;103332.25;;;23.92;46.70
46942;BME280;32676;52.630;4.896;2022-07-15T12:52:34;103288.72;;;23.85;47.71
46942;BME280;32676;52.630;4.896;2022-07-15T12:55:13;103308.31;;;23.87;47.95
46942;BME280;32676;52.630;4.896;2022-07-15T12:57:40;103285.25;;;23.83;47.89
46942;BME280;32676;52.630;4.896;2022-07-15T13:00:11;103268.44;;;23.80;47.73
46942;BME280;32676;52.630;4.896;2022-07-15T13:03:02;103288.72;;;23.85;48.41